Time;durP1;ratioP1;P1;durP2;ratioP2;P2;SDS_P1;SDS_P2;PMS_P1;PMS_P2;Temp;Humidity;BMP_temperature;BMP_pressure;BME280_temperature;BME280_humidity;BME280_pressure;Samples;Min_cycle;Max_cycle;Signal;HPM_P1;HPM_P2
2021/12/07 00:00:40;;;;;;;5.22;2.60;;;;;;;;;;5073392;28;20102;-89
2021/12/07 00:03:06;;;;;;;2.17;1.67;;;;;;;;;;5074987;28;20039;-87
2021/12/07 00:05:31;;;;;;;1.98;1.45;;;;;;;;;;5075013;28;20071;-85
2021/12/07 00:07:57;;;;;;;3.60;1.95;;;;;;;;;;5075027;28;20032;-85
2021/12/07 00:10:22;;;;;;;3.17;1.50;;;;;;;;;;5074852;28;20443;-83
2021/12/07 00:12:48;;;;;;;2.20;1.50;;;;;;;;;;5073692;28;20075;-84
2021/12/07 00:15:17;;;;;;;3.20;1.60;;;;;;;;;;5072441;28;20059;-84
2021/12/07 00:17:43;;;;;;;13.93;1.88;;;;;;;;;;5073803;28;20020;-85
2021/12/07 00:20:14;;;;;;;4.15;2.13;;;;;;;;;;5074169;28;20800;-82
2021/12/07 00:22:41;;;;;;;3.63;1.75;;;;;;;;;;5073929;28;20493;-84
2021/12/07 00:25:08;;;;;;;5.03;3.10;;;;;;;;;;5072211;28;20036;-84
2021/12/07 00:27:33;;;;;;;4.47;2.75;;;;;;;;;;5072826;28;20539;-83
2021/12/07 00:29:59;;;;;;;6.53;3.28;;;;;;;;;;5072508;28;20127;-84
2021/12/07 00:32:34;;;;;;;6.78;4.07;;;;;;;;;;5073803;28;20035;-84
2021/12/07 00:37:55;;;;;;;3.40;2.10;;;;;;;;;;5073887;28;20058;-84
2021/12/07 00:40:22;;;;;;;3.33;2.28;;;;;;;;;;5073604;28;20024;-88
2021/12/07 00:42:48;;;;;;;5.47;3.50;;;;;;;;;;5071494;28;20044;-89
2021/12/07 00:45:18;;;;;;;8.23;3.80;;;;;;;;;;5073019;28;20471;-85
2021/12/07 00:47:44;;;;;;;4.65;3.28;;;;;;;;;;5073815;28;20115;-85
2021/12/07 00:50:10;;;;;;;11.15;4.00;;;;;;;;;;5072803;28;20551;-87
2021/12/07 00:52:36;;;;;;;3.80;2.92;;;;;;;;;;5072710;28;20383;-86
2021/12/07 00:55:11;;;;;;;3.40;2.70;;;;;;;;;;5072588;28;20029;-87
2021/12/07 00:57:37;;;;;;;7.50;4.40;;;;;;;;;;5073486;28;20024;-87
2021/12/07 01:00:14;;;;;;;8.20;4.47;;;;;;;;;;5088930;28;20025;-85
2021/12/07 01:02:40;;;;;;;7.50;4.95;;;;;;;;;;5073266;28;20028;-86
2021/12/07 01:05:14;;;;;;;6.00;4.05;;;;;;;;;;5071793;28;20503;-85
2021/12/07 01:07:57;;;;;;;4.65;3.45;;;;;;;;;;5073096;28;20606;-85
2021/12/07 01:24:42;;;;;;;3.10;2.13;;;;;;;;;;5073580;28;20070;-85
2021/12/07 01:27:17;;;;;;;4.80;2.55;;;;;;;;;;5068015;28;20032;-85
2021/12/07 01:29:46;;;;;;;9.82;2.30;;;;;;;;;;5086341;28;20032;-85
2021/12/07 01:32:23;;;;;;;5.28;1.60;;;;;;;;;;5071880;28;20024;-87
2021/12/07 01:35:43;;;;;;;2.88;1.42;;;;;;;;;;5070177;28;20028;-84
2021/12/07 01:50:28;;;;;;;3.53;0.90;;;;;;;;;;5072254;28;20016;-84
2021/12/07 02:00:53;;;;;;;1.13;0.43;;;;;;;;;;5072411;28;20107;-85
2021/12/07 02:03:19;;;;;;;9.38;1.17;;;;;;;;;;5071798;28;20082;-84
2021/12/07 02:05:46;;;;;;;0.95;0.70;;;;;;;;;;5071778;28;20044;-83
2021/12/07 02:08:12;;;;;;;1.48;0.73;;;;;;;;;;5070349;28;20026;-83
2021/12/07 02:10:38;;;;;;;0.90;0.85;;;;;;;;;;5069970;28;20090;-83
2021/12/07 02:13:17;;;;;;;1.83;1.35;;;;;;;;;;5068623;28;20119;-82
2021/12/07 02:15:43;;;;;;;6.85;1.50;;;;;;;;;;5070273;28;20487;-83
2021/12/07 02:18:09;;;;;;;8.40;2.22;;;;;;;;;;5070193;28;20052;-83
2021/12/07 02:20:34;;;;;;;7.57;2.10;;;;;;;;;;5071621;28;20028;-85
2021/12/07 02:23:00;;;;;;;5.88;3.08;;;;;;;;;;5071439;28;20082;-83
2021/12/07 02:25:27;;;;;;;9.10;3.75;;;;;;;;;;5071559;28;20021;-83
2021/12/07 02:27:53;;;;;;;16.00;3.75;;;;;;;;;;5071226;28;20036;-83
2021/12/07 02:30:22;;;;;;;11.73;3.85;;;;;;;;;;5070641;28;20064;-83
2021/12/07 02:32:51;;;;;;;6.80;3.53;;;;;;;;;;5071421;28;20090;-86
2021/12/07 02:35:22;;;;;;;9.43;4.25;;;;;;;;;;5070552;28;20101;-83
2021/12/07 02:37:48;;;;;;;7.63;4.93;;;;;;;;;;5071581;28;20082;-84
2021/12/07 02:40:13;;;;;;;17.77;4.25;;;;;;;;;;5070165;28;20029;-84
2021/12/07 02:42:39;;;;;;;12.60;4.47;;;;;;;;;;5071495;28;20052;-86
2021/12/07 02:45:06;;;;;;;7.75;3.53;;;;;;;;;;5086717;28;20040;-87
2021/12/07 02:47:35;;;;;;;7.63;3.20;;;;;;;;;;5070780;28;20028;-84
2021/12/07 02:50:01;;;;;;;5.80;3.63;;;;;;;;;;5071148;28;20024;-87
2021/12/07 02:52:26;;;;;;;5.65;3.10;;;;;;;;;;5070704;28;20276;-85
2021/12/07 02:54:52;;;;;;;7.75;3.97;;;;;;;;;;5071838;28;20111;-85
2021/12/07 02:57:19;;;;;;;5.60;3.55;;;;;;;;;;5071724;28;20033;-86
2021/12/07 02:59:52;;;;;;;8.90;3.20;;;;;;;;;;5070556;28;20166;-84
2021/12/07 03:02:19;;;;;;;5.03;3.08;;;;;;;;;;5081959;28;20028;-84
2021/12/07 03:05:03;;;;;;;5.45;3.20;;;;;;;;;;5070990;28;20575;-83
2021/12/07 03:26:31;;;;;;;9.00;3.47;;;;;;;;;;5074864;28;20071;-87
2021/12/07 03:28:59;;;;;;;28.38;5.70;;;;;;;;;;5074897;28;20402;-85
2021/12/07 03:31:27;;;;;;;6.68;3.55;;;;;;;;;;5074293;28;20074;-82
2021/12/07 03:33:54;;;;;;;5.25;3.30;;;;;;;;;;5075127;28;20035;-84
2021/12/07 03:36:20;;;;;;;7.35;3.30;;;;;;;;;;5074947;28;20058;-84
2021/12/07 03:38:46;;;;;;;6.28;2.55;;;;;;;;;;5074376;28;20046;-84
2021/12/07 03:41:12;;;;;;;4.75;1.75;;;;;;;;;;5074062;28;20032;-84
2021/12/07 03:43:38;;;;;;;3.47;2.60;;;;;;;;;;5074906;28;20387;-85
2021/12/07 03:46:04;;;;;;;5.72;3.03;;;;;;;;;;5074525;28;20043;-85
2021/12/07 03:48:29;;;;;;;9.15;4.63;;;;;;;;;;5073238;28;20029;-83
2021/12/07 03:50:55;;;;;;;5.15;3.47;;;;;;;;;;5074053;28;20040;-84
2021/12/07 03:53:21;;;;;;;8.52;3.95;;;;;;;;;;5074486;28;20028;-84
2021/12/07 03:55:47;;;;;;;4.35;2.40;;;;;;;;;;5075040;28;20150;-86
2021/12/07 03:58:12;;;;;;;3.67;2.38;;;;;;;;;;5074761;28;20029;-85
2021/12/07 04:00:42;;;;;;;4.50;2.70;;;;;;;;;;5074790;28;20064;-85
2021/12/07 04:03:11;;;;;;;4.03;2.65;;;;;;;;;;5090774;28;20035;-87
2021/12/07 04:05:45;;;;;;;3.15;1.98;;;;;;;;;;5070127;28;20049;-85
2021/12/07 04:08:14;;;;;;;2.70;2.00;;;;;;;;;;5088884;28;20056;-87
2021/12/07 04:10:40;;;;;;;3.20;2.08;;;;;;;;;;5067806;28;20032;-88
2021/12/07 04:13:06;;;;;;;3.00;1.90;;;;;;;;;;5074897;28;20032;-87
2021/12/07 04:15:32;;;;;;;5.13;2.10;;;;;;;;;;5074990;28;20024;-86
2021/12/07 04:17:58;;;;;;;3.85;2.15;;;;;;;;;;5074030;28;20024;-87
2021/12/07 04:20:23;;;;;;;5.07;3.40;;;;;;;;;;5074902;28;20036;-86
2021/12/07 04:22:50;;;;;;;6.53;3.28;;;;;;;;;;5073372;28;20032;-85
2021/12/07 04:25:17;;;;;;;14.02;4.80;;;;;;;;;;5072128;28;20031;-86
2021/12/07 04:27:44;;;;;;;10.00;5.40;;;;;;;;;;5073133;28;20112;-85
2021/12/07 04:30:16;;;;;;;5.07;3.15;;;;;;;;;;5088255;28;20032;-84
2021/12/07 04:32:42;;;;;;;4.60;2.92;;;;;;;;;;5088444;28;20028;-85
2021/12/07 04:35:10;;;;;;;2.17;1.48;;;;;;;;;;5072717;28;20031;-84
2021/12/07 04:37:37;;;;;;;1.75;1.15;;;;;;;;;;5073675;28;20099;-85
2021/12/07 04:40:06;;;;;;;7.13;2.20;;;;;;;;;;5068951;28;20078;-84
2021/12/07 04:42:31;;;;;;;2.78;1.67;;;;;;;;;;5085995;28;20032;-84
2021/12/07 04:45:01;;;;;;;7.75;2.08;;;;;;;;;;5072587;28;20162;-85
2021/12/07 04:58:36;;;;;;;4.70;2.40;;;;;;;;;;5073041;28;20063;-83
2021/12/07 05:01:09;;;;;;;5.40;3.20;;;;;;;;;;5073017;28;20060;-83
2021/12/07 05:03:35;;;;;;;2.40;1.52;;;;;;;;;;5071440;28;20107;-83
2021/12/07 05:06:01;;;;;;;5.05;2.92;;;;;;;;;;5073061;28;20411;-83
2021/12/07 05:08:37;;;;;;;3.28;1.95;;;;;;;;;;5071464;28;20027;-84
2021/12/07 05:13:36;;;;;;;5.75;2.53;;;;;;;;;;5073605;28;20024;-84
2021/12/07 05:17:18;;;;;;;3.83;2.20;;;;;;;;;;5073621;28;20119;-83
2021/12/07 05:24:23;;;;;;;2.17;1.35;;;;;;;;;;5038401;28;20047;-85
2021/12/07 05:37:58;;;;;;;3.58;2.45;;;;;;;;;;5026934;28;20030;-84
2021/12/07 05:40:28;;;;;;;3.38;2.20;;;;;;;;;;5031960;28;20087;-85
2021/12/07 05:42:54;;;;;;;8.50;3.90;;;;;;;;;;5070121;28;20044;-86
2021/12/07 05:45:24;;;;;;;3.75;2.20;;;;;;;;;;5070333;28;20020;-84
2021/12/07 05:47:49;;;;;;;2.83;1.88;;;;;;;;;;5072155;28;20500;-85
2021/12/07 05:50:20;;;;;;;3.50;1.75;;;;;;;;;;5072223;28;20048;-84
2021/12/07 05:52:46;;;;;;;10.48;4.30;;;;;;;;;;5071041;28;20471;-83
2021/12/07 05:55:12;;;;;;;7.43;3.90;;;;;;;;;;5072492;28;20037;-83
2021/12/07 05:57:38;;;;;;;6.90;3.72;;;;;;;;;;5070981;28;20030;-84
2021/12/07 06:00:10;;;;;;;4.97;2.92;;;;;;;;;;5072302;28;20106;-84
2021/12/07 06:02:36;;;;;;;3.45;2.40;;;;;;;;;;5070785;28;20032;-84
2021/12/07 06:05:03;;;;;;;4.57;2.97;;;;;;;;;;5072900;28;20048;-81
2021/12/07 06:07:29;;;;;;;3.50;2.42;;;;;;;;;;5070940;28;20033;-82
2021/12/07 06:09:54;;;;;;;2.67;2.30;;;;;;;;;;5071734;28;20085;-83
2021/12/07 06:12:20;;;;;;;4.90;2.80;;;;;;;;;;5067771;28;20475;-81
2021/12/07 06:14:45;;;;;;;4.65;3.03;;;;;;;;;;5071780;28;20028;-82
2021/12/07 06:17:12;;;;;;;4.78;2.58;;;;;;;;;;5067545;28;20021;-84
2021/12/07 06:19:38;;;;;;;5.95;2.38;;;;;;;;;;5067366;28;20460;-83
2021/12/07 06:22:05;;;;;;;4.00;2.08;;;;;;;;;;5070261;28;20047;-85
2021/12/07 06:24:31;;;;;;;2.85;1.92;;;;;;;;;;5065548;28;20028;-86
2021/12/07 06:26:58;;;;;;;1.73;0.98;;;;;;;;;;5067681;28;20033;-85
2021/12/07 06:29:24;;;;;;;4.68;2.92;;;;;;;;;;5071972;28;20036;-84
2021/12/07 06:31:49;;;;;;;4.95;2.65;;;;;;;;;;5084936;28;20024;-85
2021/12/07 06:34:15;;;;;;;9.80;3.97;;;;;;;;;;5051345;28;20040;-85
2021/12/07 06:36:40;;;;;;;4.05;2.72;;;;;;;;;;5070618;28;20055;-85
2021/12/07 06:39:08;;;;;;;7.15;3.25;;;;;;;;;;5071938;28;20024;-84
2021/12/07 06:41:34;;;;;;;7.40;3.42;;;;;;;;;;5071356;28;20058;-84
2021/12/07 06:44:00;;;;;;;7.28;3.60;;;;;;;;;;5069467;28;20097;-85
2021/12/07 06:46:26;;;;;;;9.23;4.20;;;;;;;;;;5067505;28;20522;-85
2021/12/07 06:48:53;;;;;;;6.47;3.33;;;;;;;;;;5067336;28;20109;-86
2021/12/07 06:51:19;;;;;;;7.55;3.35;;;;;;;;;;5070856;28;20059;-86
2021/12/07 06:53:45;;;;;;;14.35;5.75;;;;;;;;;;5068128;28;20414;-86
2021/12/07 06:56:10;;;;;;;8.55;3.00;;;;;;;;;;5067014;28;20074;-85
2021/12/07 06:58:36;;;;;;;8.15;4.05;;;;;;;;;;5082850;28;20467;-85
2021/12/07 07:01:07;;;;;;;3.95;2.45;;;;;;;;;;5070007;28;20151;-84
2021/12/07 07:03:36;;;;;;;6.00;2.60;;;;;;;;;;5066789;28;20070;-83
2021/12/07 07:06:03;;;;;;;3.85;2.45;;;;;;;;;;5073357;28;20452;-83
2021/12/07 07:08:29;;;;;;;4.45;2.35;;;;;;;;;;5072638;28;20051;-86
2021/12/07 07:10:54;;;;;;;4.47;2.80;;;;;;;;;;5066519;28;20033;-85
2021/12/07 07:13:20;;;;;;;2.58;1.95;;;;;;;;;;5060402;28;20025;-84
2021/12/07 07:15:45;;;;;;;3.78;2.17;;;;;;;;;;5070261;28;20028;-84
2021/12/07 07:18:11;;;;;;;4.10;2.08;;;;;;;;;;5069110;28;20031;-85
2021/12/07 07:20:37;;;;;;;4.45;2.63;;;;;;;;;;5060282;28;20121;-86
2021/12/07 07:23:03;;;;;;;3.08;2.28;;;;;;;;;;5063891;28;20103;-88
2021/12/07 07:25:29;;;;;;;6.95;4.43;;;;;;;;;;5070313;28;20035;-86
2021/12/07 07:27:54;;;;;;;9.80;6.20;;;;;;;;;;5066134;28;20127;-85
2021/12/07 07:30:21;;;;;;;3.03;2.33;;;;;;;;;;5068900;28;20491;-85
2021/12/07 07:32:47;;;;;;;3.38;2.20;;;;;;;;;;5073929;28;20055;-85
2021/12/07 07:35:15;;;;;;;3.13;2.28;;;;;;;;;;5074926;28;20511;-88
2021/12/07 07:37:40;;;;;;;3.60;2.28;;;;;;;;;;5066543;28;20025;-85
2021/12/07 07:40:09;;;;;;;3.03;2.08;;;;;;;;;;5072105;28;20059;-83
2021/12/07 07:42:35;;;;;;;2.53;2.03;;;;;;;;;;5072818;28;20112;-86
2021/12/07 07:45:01;;;;;;;3.33;2.90;;;;;;;;;;5064934;28;20039;-86
2021/12/07 07:47:27;;;;;;;4.72;3.30;;;;;;;;;;5071976;28;20067;-85
2021/12/07 07:49:52;;;;;;;4.90;3.45;;;;;;;;;;5070624;28;20454;-84
2021/12/07 07:52:18;;;;;;;4.63;3.05;;;;;;;;;;5072746;28;20016;-87
2021/12/07 07:54:43;;;;;;;6.43;3.65;;;;;;;;;;5070195;28;20112;-84
2021/12/07 07:57:09;;;;;;;5.85;3.38;;;;;;;;;;5074925;28;20360;-87
2021/12/07 07:59:36;;;;;;;3.00;1.67;;;;;;;;;;5078699;28;20028;-86
2021/12/07 08:02:02;;;;;;;5.00;2.92;;;;;;;;;;5071943;28;20045;-84
2021/12/07 08:04:28;;;;;;;5.40;3.38;;;;;;;;;;5070159;28;20103;-87
2021/12/07 08:06:53;;;;;;;5.05;2.75;;;;;;;;;;5067469;28;20477;-85
2021/12/07 08:09:19;;;;;;;3.78;2.30;;;;;;;;;;5070174;28;20032;-87
2021/12/07 08:11:52;;;;;;;5.30;3.28;;;;;;;;;;5072320;28;20111;-85
2021/12/07 08:14:18;;;;;;;4.80;3.50;;;;;;;;;;5072621;28;20052;-86
2021/12/07 08:16:45;;;;;;;5.45;4.40;;;;;;;;;;5072391;28;20502;-83
2021/12/07 08:19:10;;;;;;;6.93;4.57;;;;;;;;;;5072083;28;20078;-82
2021/12/07 08:21:36;;;;;;;4.68;3.28;;;;;;;;;;5070787;28;20024;-83
2021/12/07 08:24:02;;;;;;;6.68;4.78;;;;;;;;;;5070865;28;20028;-84
2021/12/07 08:26:29;;;;;;;4.90;3.83;;;;;;;;;;5071280;28;20547;-84
2021/12/07 08:28:56;;;;;;;5.05;3.17;;;;;;;;;;5073484;28;20124;-82
2021/12/07 08:31:22;;;;;;;5.47;3.03;;;;;;;;;;5071561;28;20028;-84
2021/12/07 08:33:48;;;;;;;2.65;1.67;;;;;;;;;;5072732;28;20025;-86
2021/12/07 08:36:14;;;;;;;3.80;2.30;;;;;;;;;;5073568;28;20031;-83
2021/12/07 08:38:39;;;;;;;4.68;3.25;;;;;;;;;;5068059;28;20021;-83
2021/12/07 08:41:05;;;;;;;3.85;3.05;;;;;;;;;;5068104;28;20470;-83
2021/12/07 08:43:38;;;;;;;5.32;3.17;;;;;;;;;;5071587;28;20392;-83
2021/12/07 08:46:04;;;;;;;4.82;3.05;;;;;;;;;;5073223;28;20040;-82
2021/12/07 08:48:31;;;;;;;3.88;2.92;;;;;;;;;;5071296;28;20537;-84
2021/12/07 08:50:57;;;;;;;7.15;3.78;;;;;;;;;;5070855;28;20387;-85
2021/12/07 08:53:24;;;;;;;4.78;3.20;;;;;;;;;;5068483;28;20021;-85
2021/12/07 09:01:22;;;;;;;4.07;3.00;;;;;;;;;;5072673;28;20073;-83
2021/12/07 09:03:49;;;;;;;8.05;4.70;;;;;;;;;;5061561;28;20013;-82
2021/12/07 09:06:15;;;;;;;52.72;12.02;;;;;;;;;;5070244;28;20097;-83
2021/12/07 09:08:41;;;;;;;17.15;8.75;;;;;;;;;;5062013;28;20021;-82
2021/12/07 09:11:09;;;;;;;12.80;7.95;;;;;;;;;;5067141;28;20074;-83
2021/12/07 09:13:35;;;;;;;18.85;9.93;;;;;;;;;;5070764;28;20111;-83
2021/12/07 09:16:01;;;;;;;17.40;7.13;;;;;;;;;;5069547;28;20025;-83
2021/12/07 09:18:27;;;;;;;17.23;9.68;;;;;;;;;;5065827;28;20039;-83
2021/12/07 09:20:53;;;;;;;11.07;6.85;;;;;;;;;;5069570;28;20028;-85
2021/12/07 09:23:22;;;;;;;8.73;7.18;;;;;;;;;;5068589;28;20035;-83
2021/12/07 09:25:48;;;;;;;7.70;5.72;;;;;;;;;;5071095;28;20024;-84
2021/12/07 09:28:13;;;;;;;8.63;5.70;;;;;;;;;;5072048;28;20515;-83
2021/12/07 09:30:40;;;;;;;9.00;6.22;;;;;;;;;;5068937;28;20104;-85
2021/12/07 09:33:06;;;;;;;10.82;6.00;;;;;;;;;;5065998;28;20025;-84
2021/12/07 09:35:32;;;;;;;8.63;5.75;;;;;;;;;;5067758;28;20029;-85
2021/12/07 09:37:58;;;;;;;10.25;5.65;;;;;;;;;;5072131;28;20028;-84
2021/12/07 09:40:28;;;;;;;5.03;3.53;;;;;;;;;;5069126;28;20103;-85
2021/12/07 09:42:55;;;;;;;6.05;4.28;;;;;;;;;;5066490;28;20063;-83
2021/12/07 09:45:21;;;;;;;7.40;5.03;;;;;;;;;;5078804;28;20020;-84
2021/12/07 09:47:47;;;;;;;12.07;7.60;;;;;;;;;;5063540;28;20031;-84
2021/12/07 09:50:16;;;;;;;5.78;4.55;;;;;;;;;;5067700;28;20035;-85
2021/12/07 09:52:43;;;;;;;7.65;4.57;;;;;;;;;;5068106;28;20044;-86
2021/12/07 09:55:10;;;;;;;8.93;6.07;;;;;;;;;;5067116;28;20111;-83
2021/12/07 09:57:35;;;;;;;10.63;6.90;;;;;;;;;;5085932;28;20024;-85
2021/12/07 10:00:05;;;;;;;11.77;7.82;;;;;;;;;;5085155;28;20082;-85
2021/12/07 10:02:30;;;;;;;8.43;5.45;;;;;;;;;;5068660;28;20021;-84
2021/12/07 10:04:56;;;;;;;8.50;5.55;;;;;;;;;;5069915;28;20097;-84
2021/12/07 10:07:21;;;;;;;9.93;6.45;;;;;;;;;;5070287;28;20059;-85
2021/12/07 10:09:47;;;;;;;9.10;5.88;;;;;;;;;;5069428;28;20032;-84
2021/12/07 10:12:21;;;;;;;12.57;5.97;;;;;;;;;;5068679;28;20025;-82
2021/12/07 10:14:49;;;;;;;8.48;5.47;;;;;;;;;;5061757;28;20020;-83
2021/12/07 10:17:20;;;;;;;17.70;11.43;;;;;;;;;;5069127;28;20020;-83
2021/12/07 10:19:48;;;;;;;4.85;3.80;;;;;;;;;;5063720;28;20028;-83
2021/12/07 10:22:19;;;;;;;11.15;6.90;;;;;;;;;;5070772;28;20032;-82
2021/12/07 10:24:50;;;;;;;10.60;6.18;;;;;;;;;;5066400;28;20024;-81
2021/12/07 10:27:33;;;;;;;6.55;5.00;;;;;;;;;;5071266;28;20024;-82
2021/12/07 10:29:59;;;;;;;10.07;5.93;;;;;;;;;;5068583;28;20036;-82
2021/12/07 10:32:25;;;;;;;12.18;6.60;;;;;;;;;;5070477;28;20030;-81
2021/12/07 10:34:51;;;;;;;24.70;10.88;;;;;;;;;;5069103;28;20380;-84
2021/12/07 10:37:18;;;;;;;15.48;10.70;;;;;;;;;;5071984;28;20020;-84
2021/12/07 10:39:55;;;;;;;14.48;8.05;;;;;;;;;;5086450;28;20020;-83
2021/12/07 10:42:27;;;;;;;12.35;9.23;;;;;;;;;;5068076;28;20103;-84
2021/12/07 10:44:54;;;;;;;10.40;6.43;;;;;;;;;;5068487;28;20032;-86
2021/12/07 10:47:22;;;;;;;10.85;7.53;;;;;;;;;;5084930;28;20048;-88
2021/12/07 10:49:51;;;;;;;7.70;6.07;;;;;;;;;;5071268;28;20017;-83
2021/12/07 10:52:26;;;;;;;8.18;5.97;;;;;;;;;;5069094;28;20025;-84
2021/12/07 10:55:15;;;;;;;8.52;5.50;;;;;;;;;;5068175;28;20020;-85
2021/12/07 10:57:52;;;;;;;7.65;5.70;;;;;;;;;;5069652;28;20024;-82
2021/12/07 11:00:25;;;;;;;11.07;7.00;;;;;;;;;;5068372;28;20547;-84
2021/12/07 11:03:07;;;;;;;10.02;6.30;;;;;;;;;;5086814;28;20016;-86
2021/12/07 11:05:36;;;;;;;6.90;5.38;;;;;;;;;;5069668;28;20052;-86
2021/12/07 11:08:05;;;;;;;9.35;6.88;;;;;;;;;;5071428;28;20028;-85
2021/12/07 11:10:34;;;;;;;6.28;4.60;;;;;;;;;;5070175;28;20028;-86
2021/12/07 11:15:32;;;;;;;10.77;6.35;;;;;;;;;;5070378;28;20055;-85
2021/12/07 11:18:04;;;;;;;12.65;8.43;;;;;;;;;;5068537;28;20059;-82
2021/12/07 11:20:32;;;;;;;10.75;7.18;;;;;;;;;;5064071;28;20024;-83
2021/12/07 11:23:06;;;;;;;13.73;7.68;;;;;;;;;;5069885;28;20043;-85
2021/12/07 11:31:34;;;;;;;;;;;;;;;;;;5072069;28;20027;-84
2021/12/07 11:34:10;;;;;;;10.80;6.68;;;;;;;;;;5069242;28;19912;-88
2021/12/07 11:36:49;;;;;;;9.60;5.05;;;;;;;;;;5082756;28;20025;-86
2021/12/07 11:39:39;;;;;;;10.68;5.82;;;;;;;;;;5070331;28;20460;-85
2021/12/07 11:42:09;;;;;;;10.38;5.13;;;;;;;;;;5069582;28;20043;-87
2021/12/07 11:44:46;;;;;;;5.43;3.73;;;;;;;;;;5089913;28;20033;-87
2021/12/07 11:47:12;;;;;;;8.40;4.32;;;;;;;;;;5072892;28;20295;-87
2021/12/07 11:49:38;;;;;;;6.82;3.80;;;;;;;;;;5072536;28;20054;-83
2021/12/07 11:52:05;;;;;;;7.72;5.00;;;;;;;;;;5087565;28;20115;-86
2021/12/07 11:54:40;;;;;;;5.82;4.70;;;;;;;;;;5069025;28;20032;-84
2021/12/07 11:57:08;;;;;;;7.72;3.65;;;;;;;;;;5073063;28;20585;-83
2021/12/07 11:59:34;;;;;;;11.48;6.07;;;;;;;;;;5071932;28;20024;-82
2021/12/07 12:01:59;;;;;;;8.75;5.78;;;;;;;;;;5074436;28;20094;-84
2021/12/07 12:04:25;;;;;;;9.75;5.35;;;;;;;;;;5072410;28;20029;-85
2021/12/07 12:06:53;;;;;;;11.07;4.55;;;;;;;;;;5072576;28;20048;-84
2021/12/07 12:09:22;;;;;;;6.35;4.28;;;;;;;;;;5071651;28;20422;-84
2021/12/07 12:12:06;;;;;;;12.35;7.82;;;;;;;;;;5069930;28;20028;-83
2021/12/07 12:15:03;;;;;;;7.00;4.68;;;;;;;;;;5070882;28;20024;-85
2021/12/07 12:17:57;;;;;;;10.18;5.30;;;;;;;;;;5070128;28;20079;-81
2021/12/07 12:20:36;;;;;;;8.35;4.03;;;;;;;;;;5071596;28;20037;-84
2021/12/07 12:23:20;;;;;;;6.38;3.95;;;;;;;;;;5071681;28;20471;-83
2021/12/07 12:25:56;;;;;;;4.40;3.22;;;;;;;;;;5069249;28;20108;-82
2021/12/07 12:28:32;;;;;;;5.72;3.58;;;;;;;;;;5073844;28;20020;-83
2021/12/07 12:30:58;;;;;;;4.75;3.30;;;;;;;;;;5070024;28;20024;-84
2021/12/07 12:33:24;;;;;;;6.65;3.55;;;;;;;;;;5071589;28;20040;-85
2021/12/07 12:35:52;;;;;;;3.80;2.67;;;;;;;;;;5067349;28;20137;-83
2021/12/07 12:38:22;;;;;;;5.18;3.38;;;;;;;;;;5073474;28;20027;-82
2021/12/07 12:40:57;;;;;;;;;;;;;;;;;;5067869;28;20151;-84
2021/12/07 12:43:54;;;;;;;4.55;2.83;;;;;;;;;;5083844;28;20011;-83
2021/12/07 12:46:24;;;;;;;3.83;3.03;;;;;;;;;;5066467;28;20048;-84
2021/12/07 12:48:58;;;;;;;4.28;2.72;;;;;;;;;;5070698;28;20078;-85
2021/12/07 12:51:28;;;;;;;2.75;2.25;;;;;;;;;;5072077;28;20047;-85
2021/12/07 12:53:54;;;;;;;;;;;;;;;;;;5083198;28;20824;-85
2021/12/07 12:56:26;;;;;;;5.07;2.53;;;;;;;;;;5069284;28;19966;-84
2021/12/07 12:58:55;;;;;;;4.43;3.53;;;;;;;;;;5084697;28;20020;-84
2021/12/07 13:01:32;;;;;;;10.10;5.45;;;;;;;;;;5070083;28;20041;-84
2021/12/07 13:03:59;;;;;;;7.75;4.80;;;;;;;;;;5085628;28;20487;-83
2021/12/07 13:06:25;;;;;;;7.90;4.38;;;;;;;;;;5069774;28;20078;-84
2021/12/07 13:09:00;;;;;;;5.05;3.33;;;;;;;;;;5071970;28;20356;-81
2021/12/07 13:11:34;;;;;;;8.45;4.80;;;;;;;;;;5058068;28;20036;-83
2021/12/07 13:14:00;;;;;;;7.13;4.30;;;;;;;;;;5072238;28;20039;-84
2021/12/07 13:16:25;;;;;;;6.00;4.00;;;;;;;;;;5070584;28;20032;-85
2021/12/07 13:19:07;;;;;;;6.22;4.85;;;;;;;;;;5064907;28;20138;-86
2021/12/07 13:21:40;;;;;;;4.50;2.75;;;;;;;;;;5070238;28;20035;-87
2021/12/07 13:24:11;;;;;;;6.70;4.75;;;;;;;;;;5070165;28;20033;-85
2021/12/07 13:26:43;;;;;;;4.45;3.53;;;;;;;;;;5068074;28;20040;-83
2021/12/07 13:29:18;;;;;;;4.93;3.67;;;;;;;;;;5069330;28;20138;-84
2021/12/07 13:31:51;;;;;;;3.90;2.85;;;;;;;;;;5071331;28;20044;-86
2021/12/07 13:34:25;;;;;;;7.80;4.30;;;;;;;;;;5079218;28;20032;-84
2021/12/07 13:36:53;;;;;;;7.68;4.00;;;;;;;;;;5071166;28;20380;-85
2021/12/07 13:39:20;;;;;;;7.63;4.38;;;;;;;;;;5068697;28;20023;-85
2021/12/07 13:42:06;;;;;;;8.90;4.38;;;;;;;;;;5066696;28;20032;-84
2021/12/07 13:44:33;;;;;;;14.70;8.27;;;;;;;;;;5055290;28;20046;-85
2021/12/07 13:47:03;;;;;;;9.75;5.68;;;;;;;;;;5071639;28;20029;-83
2021/12/07 13:49:29;;;;;;;;;;;;;;;;;;5069798;28;20047;-85
2021/12/07 13:51:55;;;;;;;6.97;5.00;;;;;;;;;;5086035;28;20310;-85
2021/12/07 13:54:21;;;;;;;16.52;11.35;;;;;;;;;;5067888;28;20039;-83
2021/12/07 13:56:49;;;;;;;7.95;4.65;;;;;;;;;;5087297;28;20028;-83
2021/12/07 13:59:18;;;;;;;5.47;4.40;;;;;;;;;;5068916;28;20099;-83
2021/12/07 14:01:54;;;;;;;5.95;3.67;;;;;;;;;;5066774;28;20387;-84
2021/12/07 14:04:23;;;;;;;4.03;3.17;;;;;;;;;;5069046;28;20017;-82
2021/12/07 14:06:49;;;;;;;7.40;5.90;;;;;;;;;;5070239;28;20495;-83
2021/12/07 14:09:16;;;;;;;5.35;3.63;;;;;;;;;;5069652;28;20037;-84
2021/12/07 14:11:43;;;;;;;4.78;2.97;;;;;;;;;;5070105;28;20097;-84
2021/12/07 14:14:14;;;;;;;6.32;4.55;;;;;;;;;;5069439;28;20425;-85
2021/12/07 14:16:42;;;;;;;10.15;6.18;;;;;;;;;;5070966;28;20045;-87
2021/12/07 14:19:08;;;;;;;10.13;5.65;;;;;;;;;;5069699;28;20020;-84
2021/12/07 14:21:34;;;;;;;4.57;2.90;;;;;;;;;;5069610;28;20063;-84
2021/12/07 14:24:07;;;;;;;7.35;4.35;;;;;;;;;;5069524;28;20071;-82
2021/12/07 14:26:38;;;;;;;4.57;3.33;;;;;;;;;;5071303;28;20055;-82
2021/12/07 14:29:09;;;;;;;4.45;3.38;;;;;;;;;;5069520;28;20028;-86
2021/12/07 14:31:39;;;;;;;7.07;4.20;;;;;;;;;;5071106;28;20028;-83
2021/12/07 14:34:11;;;;;;;6.65;4.93;;;;;;;;;;5068792;28;20029;-83
2021/12/07 14:36:43;;;;;;;5.63;3.53;;;;;;;;;;5071057;28;20495;-82
2021/12/07 14:39:22;;;;;;;5.38;3.65;;;;;;;;;;5068201;28;20085;-83
2021/12/07 14:41:53;;;;;;;5.10;3.80;;;;;;;;;;5070982;28;20031;-84
2021/12/07 14:44:21;;;;;;;3.25;2.15;;;;;;;;;;5069276;28;20024;-83
2021/12/07 14:46:48;;;;;;;5.40;4.38;;;;;;;;;;5070656;28;20025;-82
2021/12/07 14:49:15;;;;;;;4.25;3.47;;;;;;;;;;5069552;28;20039;-84
2021/12/07 14:51:42;;;;;;;6.28;4.70;;;;;;;;;;5069346;28;20021;-85
2021/12/07 14:54:08;;;;;;;5.95;4.03;;;;;;;;;;5069441;28;20065;-84
2021/12/07 14:56:37;;;;;;;5.63;4.28;;;;;;;;;;5070625;28;20051;-84
2021/12/07 14:59:10;;;;;;;4.18;3.53;;;;;;;;;;5068275;28;20032;-83
2021/12/07 15:01:48;;;;;;;4.47;3.75;;;;;;;;;;5086609;28;20032;-84
2021/12/07 15:04:15;;;;;;;5.93;4.32;;;;;;;;;;5069591;28;20046;-85
2021/12/07 15:06:47;;;;;;;4.47;3.45;;;;;;;;;;5074997;28;20131;-84
2021/12/07 15:09:13;;;;;;;4.03;2.80;;;;;;;;;;5067585;28;20467;-84
2021/12/07 15:11:47;;;;;;;3.13;2.60;;;;;;;;;;5069031;28;20047;-83
2021/12/07 15:14:16;;;;;;;4.32;3.67;;;;;;;;;;5070255;28;20417;-84
2021/12/07 15:16:43;;;;;;;4.15;2.75;;;;;;;;;;5086083;28;20094;-83
2021/12/07 15:19:09;;;;;;;10.20;3.78;;;;;;;;;;5071755;28;20108;-80
2021/12/07 15:21:36;;;;;;;2.08;1.58;;;;;;;;;;5074204;28;20107;-82
2021/12/07 15:24:18;;;;;;;3.45;1.83;;;;;;;;;;5074169;28;20082;-84
2021/12/07 15:26:44;;;;;;;3.30;1.92;;;;;;;;;;5069635;28;20060;-83
2021/12/07 15:29:10;;;;;;;2.00;1.17;;;;;;;;;;5071925;28;20082;-85
2021/12/07 15:31:46;;;;;;;0.75;0.60;;;;;;;;;;5074187;28;20024;-83
2021/12/07 15:34:12;;;;;;;0.45;0.45;;;;;;;;;;5072897;28;20033;-82
2021/12/07 15:36:40;;;;;;;1.42;1.30;;;;;;;;;;5074598;28;20023;-82
2021/12/07 15:39:10;;;;;;;0.85;0.65;;;;;;;;;;5071991;28;20070;-81
2021/12/07 15:41:38;;;;;;;1.95;1.55;;;;;;;;;;5068794;28;20028;-85
2021/12/07 15:44:04;;;;;;;2.10;1.38;;;;;;;;;;5071645;28;20036;-84
2021/12/07 15:46:30;;;;;;;0.60;0.60;;;;;;;;;;5073464;28;20040;-82
2021/12/07 15:48:56;;;;;;;0.77;0.77;;;;;;;;;;5073158;28;20032;-84
2021/12/07 15:51:23;;;;;;;1.27;1.17;;;;;;;;;;5072541;28;20034;-82
2021/12/07 15:53:52;;;;;;;1.02;0.80;;;;;;;;;;5074447;28;20103;-82
2021/12/07 15:56:20;;;;;;;2.10;1.40;;;;;;;;;;5073989;28;20025;-81
2021/12/07 15:58:52;;;;;;;0.77;0.77;;;;;;;;;;5067217;28;20033;-86
2021/12/07 16:01:17;;;;;;;0.60;0.60;;;;;;;;;;5074107;28;20051;-84
2021/12/07 16:03:49;;;;;;;1.55;1.30;;;;;;;;;;5070628;28;20029;-85
2021/12/07 16:06:23;;;;;;;0.40;0.40;;;;;;;;;;5067918;28;20044;-83
2021/12/07 16:08:50;;;;;;;0.63;0.60;;;;;;;;;;5064629;28;20062;-84
2021/12/07 16:11:18;;;;;;;1.00;0.88;;;;;;;;;;5063304;28;20020;-83
2021/12/07 16:13:50;;;;;;;0.40;0.40;;;;;;;;;;5063763;28;20036;-82
2021/12/07 16:16:18;;;;;;;0.28;0.28;;;;;;;;;;5073450;28;20046;-82
2021/12/07 16:18:44;;;;;;;0.40;0.40;;;;;;;;;;5073385;28;20024;-80
2021/12/07 16:21:10;;;;;;;1.35;0.93;;;;;;;;;;5073214;28;20028;-83
2021/12/07 16:23:39;;;;;;;1.38;1.20;;;;;;;;;;5072029;28;20057;-82
2021/12/07 16:26:10;;;;;;;1.27;1.02;;;;;;;;;;5070867;28;20033;-83
2021/12/07 16:28:51;;;;;;;0.20;0.20;;;;;;;;;;5070770;28;20020;-82
2021/12/07 16:31:18;;;;;;;0.75;0.75;;;;;;;;;;5073628;28;20024;-83
2021/12/07 16:33:46;;;;;;;0.55;0.55;;;;;;;;;;5073286;28;20476;-81